Summitt, Oklahoma
Current Conditions -  °F | °C
As of 5:53 AM on Monday 20 Oct 2014 (Local Time) from KMKO Reporting Station
Few Clouds Few Clouds  
Wind Chill: 55°   Ceiling: Unl
Heat Index: 55°   Visibility: 10mi
Dew Point: 52°   Wind: 3mph
Humidity: 89%   Direction: 150°SSE
Pressure: 30.06"   Gusts: NA
Location:  35.6818°N, 95.3578°W
Report Text: KMKO 201053Z AUTO 15003KT 10SM FEW055 13/11 A3006 RMK AO2 RAB11E23 SLP176 P0000 T01280111
Loading
Personal Weather Stations






























Interactive Weather Map
Tropical Storm Tracking
New forecast layout! Learn more

10-Day Weather Forecast

Advertisements
Track Severe Weather on mobile